createdAt,value
2022-08-17T00:00:34.413Z,6.80
2022-08-17T00:03:57.383Z,4.93
2022-08-17T00:07:19.283Z,4.78
2022-08-17T00:10:43.081Z,7.65
2022-08-17T00:14:14.838Z,7.60
2022-08-17T00:17:36.964Z,4.15
2022-08-17T00:20:59.516Z,4.28
2022-08-17T00:24:21.208Z,6.47
2022-08-17T00:27:43.050Z,9.60
2022-08-17T00:31:07.752Z,6.18
2022-08-17T00:34:29.529Z,4.55
2022-08-17T00:37:54.575Z,6.20
2022-08-17T00:41:19.367Z,6.13
2022-08-17T00:44:42.206Z,4.85
2022-08-17T00:48:04.007Z,5.82
2022-08-17T00:51:49.285Z,5.68
2022-08-17T00:55:11.613Z,6.40
2022-08-17T00:58:36.681Z,5.68
2022-08-17T01:01:59.169Z,9.70
2022-08-17T01:05:25.597Z,5.47
2022-08-17T01:08:47.821Z,5.20
2022-08-17T01:12:10.797Z,4.43
2022-08-17T01:15:37.423Z,5.22
2022-08-17T01:19:07.771Z,4.75
2022-08-17T01:22:29.594Z,5.80
2022-08-17T01:25:59.700Z,6.78
2022-08-17T01:29:24.281Z,5.20
2022-08-17T01:32:46.392Z,4.43
2022-08-17T01:36:08.953Z,5.35
2022-08-17T01:39:53.988Z,4.20
2022-08-17T01:43:22.672Z,6.75
2022-08-17T01:46:44.596Z,4.43
2022-08-17T01:50:10.432Z,5.55
2022-08-17T01:53:37.132Z,6.57
2022-08-17T01:56:58.809Z,4.72
2022-08-17T02:00:21.186Z,4.80
2022-08-17T02:03:59.505Z,9.32
2022-08-17T02:07:26.119Z,4.43
2022-08-17T02:10:50.444Z,4.90
2022-08-17T02:14:13.750Z,4.95
2022-08-17T02:17:35.848Z,6.22
2022-08-17T02:20:57.721Z,6.15
2022-08-17T02:24:58.852Z,4.88
2022-08-17T02:28:08.858Z,5.22
2022-08-17T02:31:31.027Z,4.82
2022-08-17T02:34:54.081Z,8.55
2022-08-17T02:38:16.585Z,9.80
2022-08-17T02:41:39.556Z,5.30
2022-08-17T02:45:02.412Z,5.70
2022-08-17T02:48:31.611Z,7.97
2022-08-17T02:51:53.710Z,5.93
2022-08-17T02:55:20.494Z,6.53
2022-08-17T02:58:42.324Z,4.85
2022-08-17T03:02:06.209Z,5.63
2022-08-17T03:05:30.424Z,4.80
2022-08-17T03:08:54.546Z,7.20
2022-08-17T03:12:17.770Z,9.32
2022-08-17T03:15:43.836Z,7.45
2022-08-17T03:19:06.168Z,11.63
2022-08-17T03:22:36.641Z,4.93
2022-08-17T03:26:00.866Z,5.72
2022-08-17T03:29:22.684Z,6.50
2022-08-17T03:32:47.409Z,5.53
2022-08-17T03:36:09.541Z,6.85
2022-08-17T03:39:31.438Z,8.18
2022-08-17T03:42:54.675Z,4.65
2022-08-17T03:46:35.680Z,8.80
2022-08-17T03:50:23.798Z,7.05
2022-08-17T03:54:15.795Z,6.88
2022-08-17T03:57:37.626Z,7.50
2022-08-17T04:01:00.127Z,8.93
2022-08-17T04:04:27.650Z,10.43
2022-08-17T04:07:49.756Z,12.50
2022-08-17T04:11:11.464Z,13.68
2022-08-17T04:14:39.295Z,11.02
2022-08-17T04:18:16.744Z,15.00
2022-08-17T04:21:38.607Z,8.70
2022-08-17T04:25:07.396Z,10.50
2022-08-17T04:28:30.838Z,9.82
2022-08-17T04:31:53.081Z,12.63
2022-08-17T04:35:23.119Z,10.65
2022-08-17T04:38:46.346Z,12.35
2022-08-17T04:42:16.933Z,10.82
2022-08-17T04:45:54.849Z,10.65
2022-08-17T04:49:18.470Z,10.85
2022-08-17T04:52:49.778Z,11.88
2022-08-17T04:56:17.067Z,14.38
2022-08-17T04:59:39.992Z,13.95
2022-08-17T05:03:01.876Z,13.13
2022-08-17T05:06:24.195Z,15.07
2022-08-17T05:09:46.107Z,9.85
2022-08-17T05:13:10.574Z,10.35
2022-08-17T05:16:32.533Z,11.50
2022-08-17T05:19:54.227Z,8.98
2022-08-17T05:23:17.852Z,11.27
2022-08-17T05:26:39.631Z,13.27
2022-08-17T05:30:04.490Z,9.18
2022-08-17T05:33:29.501Z,6.95
2022-08-17T05:36:51.224Z,9.82
2022-08-17T05:40:13.967Z,11.70
2022-08-17T05:43:41.436Z,9.95
2022-08-17T05:47:05.490Z,9.45
2022-08-17T05:50:51.206Z,9.88
2022-08-17T05:54:50.956Z,9.68
2022-08-17T05:58:48.047Z,10.25
2022-08-17T06:02:47.082Z,11.88
2022-08-17T06:06:31.221Z,8.68
2022-08-17T06:10:22.774Z,15.13
2022-08-17T06:13:53.201Z,10.88
2022-08-17T06:17:21.927Z,15.50
2022-08-17T06:21:02.981Z,14.48
2022-08-17T06:24:38.884Z,11.90
2022-08-17T06:28:08.237Z,11.07
2022-08-17T06:31:34.420Z,14.23
2022-08-17T06:34:58.551Z,13.35
2022-08-17T06:38:38.470Z,16.13
2022-08-17T06:43:02.424Z,15.90
2022-08-17T06:46:32.858Z,10.48
2022-08-17T06:50:14.562Z,12.82
2022-08-17T06:53:54.228Z,14.93
2022-08-17T06:57:17.037Z,13.13
2022-08-17T07:00:46.017Z,10.27
2022-08-17T07:04:19.099Z,13.10
2022-08-17T07:08:01.687Z,10.68
2022-08-17T07:11:34.326Z,14.00
2022-08-17T07:15:12.708Z,15.93
2022-08-17T07:18:34.640Z,16.52
2022-08-17T07:22:02.246Z,19.48
2022-08-17T07:25:24.108Z,11.13
2022-08-17T07:28:46.055Z,14.32
2022-08-17T07:32:11.145Z,15.07
2022-08-17T07:35:43.991Z,14.30
2022-08-17T07:39:06.244Z,15.57
2022-08-17T07:42:28.478Z,15.68
2022-08-17T07:46:33.775Z,18.42
2022-08-17T07:49:55.645Z,13.73
2022-08-17T07:53:25.435Z,14.93
2022-08-17T07:56:53.409Z,12.95
2022-08-17T08:00:24.358Z,13.85
2022-08-17T08:03:54.436Z,16.10
2022-08-17T08:07:17.486Z,14.23
2022-08-17T08:10:45.075Z,15.30
2022-08-17T08:14:33.448Z,12.77
2022-08-17T08:17:57.423Z,15.43
2022-08-17T08:21:22.260Z,12.02
2022-08-17T08:24:52.138Z,12.43
2022-08-17T08:28:33.908Z,13.20
2022-08-17T08:32:05.778Z,14.65
2022-08-17T08:35:37.295Z,12.98
2022-08-17T08:39:21.948Z,11.38
2022-08-17T08:43:12.494Z,9.82
2022-08-17T08:46:47.063Z,9.60
2022-08-17T08:50:46.496Z,12.25
2022-08-17T08:54:34.545Z,13.73
2022-08-17T08:58:06.238Z,8.85
2022-08-17T09:01:30.354Z,11.35
2022-08-17T09:05:16.191Z,10.93
2022-08-17T09:09:09.240Z,11.50
2022-08-17T09:13:05.949Z,12.43
2022-08-17T09:16:42.684Z,12.38
2022-08-17T09:20:27.448Z,14.73
2022-08-17T09:24:12.541Z,11.95
2022-08-17T09:28:06.959Z,11.55
2022-08-17T09:31:48.730Z,8.55
2022-08-17T09:35:36.904Z,11.85
2022-08-17T09:39:05.706Z,9.82
2022-08-17T09:42:33.019Z,9.95
2022-08-17T09:46:02.129Z,11.70
2022-08-17T09:49:36.821Z,13.60
2022-08-17T09:52:59.344Z,7.18
2022-08-17T09:56:41.071Z,11.02
2022-08-17T10:00:13.121Z,8.63
2022-08-17T10:03:50.878Z,11.57
2022-08-17T10:07:30.365Z,13.10
2022-08-17T10:11:10.214Z,10.95
2022-08-17T10:14:44.297Z,13.48
2022-08-17T10:18:31.902Z,12.02
2022-08-17T10:22:35.150Z,10.65
2022-08-17T10:26:15.365Z,12.35
2022-08-17T10:29:55.386Z,12.93
2022-08-17T10:33:27.882Z,11.95
2022-08-17T10:37:02.401Z,11.45
2022-08-17T10:40:56.052Z,13.55
2022-08-17T10:44:39.722Z,10.68
2022-08-17T10:48:25.475Z,10.75
2022-08-17T10:51:54.275Z,11.10
2022-08-17T10:55:18.630Z,9.20
2022-08-17T10:58:54.262Z,9.88
2022-08-17T11:02:42.145Z,12.55
2022-08-17T11:06:18.691Z,11.10
2022-08-17T11:10:13.283Z,10.45
2022-08-17T11:13:53.647Z,10.02
2022-08-17T11:17:41.349Z,7.45
2022-08-17T11:21:09.122Z,15.63
2022-08-17T11:24:47.839Z,5.82
2022-08-17T11:28:23.644Z,6.20
2022-08-17T11:32:00.335Z,8.50
2022-08-17T11:35:22.045Z,6.55
2022-08-17T11:38:57.770Z,7.97
2022-08-17T11:42:25.334Z,8.15
2022-08-17T11:46:06.472Z,8.18
2022-08-17T11:50:27.974Z,4.60
2022-08-17T11:53:50.130Z,4.97
2022-08-17T11:57:27.255Z,3.95
2022-08-17T12:00:56.616Z,4.85
2022-08-17T12:04:28.045Z,12.50
2022-08-17T12:07:55.491Z,5.15
2022-08-17T12:11:58.598Z,4.85
2022-08-17T12:15:11.796Z,4.47
2022-08-17T12:18:37.301Z,5.68
2022-08-17T12:22:17.195Z,5.55
2022-08-17T12:25:51.715Z,9.80
2022-08-17T12:29:18.223Z,5.85
2022-08-17T12:32:58.167Z,6.55
2022-08-17T12:36:24.703Z,6.22
2022-08-17T12:40:06.103Z,5.72
2022-08-17T12:43:32.765Z,5.03
2022-08-17T12:47:04.444Z,4.88
2022-08-17T12:50:28.845Z,8.52
2022-08-17T12:53:55.336Z,7.72
2022-08-17T12:57:22.917Z,5.85
2022-08-17T13:00:55.280Z,7.97
2022-08-17T13:04:18.204Z,8.52
2022-08-17T13:07:46.501Z,6.55
2022-08-17T13:11:29.130Z,11.15
2022-08-17T13:14:50.961Z,6.28
2022-08-17T13:18:40.353Z,5.88
2022-08-17T13:22:09.337Z,8.23
2022-08-17T13:25:31.292Z,7.70
2022-08-17T13:28:54.574Z,4.43
2022-08-17T13:32:22.828Z,6.82
2022-08-17T13:35:50.220Z,4.35
2022-08-17T13:39:14.209Z,6.63
2022-08-17T13:42:53.337Z,5.70
2022-08-17T13:46:31.267Z,4.53
2022-08-17T13:49:55.179Z,5.22
2022-08-17T13:53:26.443Z,5.40
2022-08-17T13:56:54.104Z,5.47
2022-08-17T14:00:35.285Z,4.55
2022-08-17T14:03:58.619Z,5.72
2022-08-17T14:07:26.428Z,5.18
2022-08-17T14:10:57.683Z,6.07
2022-08-17T14:14:22.997Z,5.20
2022-08-17T14:17:44.845Z,6.45
2022-08-17T14:21:08.259Z,4.18
2022-08-17T14:24:35.024Z,4.68
2022-08-17T14:27:57.199Z,5.05
2022-08-17T14:31:20.522Z,4.85
2022-08-17T14:34:42.780Z,5.43
2022-08-17T14:38:05.829Z,3.35
2022-08-17T14:41:27.604Z,4.00
2022-08-17T14:44:50.066Z,4.32
2022-08-17T14:48:11.885Z,3.78
2022-08-17T14:51:33.867Z,9.43
2022-08-17T14:54:56.081Z,12.43
2022-08-17T14:58:18.260Z,3.45
2022-08-17T15:01:40.142Z,3.72
2022-08-17T15:05:05.141Z,3.50
2022-08-17T15:08:28.214Z,4.00
2022-08-17T15:11:50.559Z,5.63
2022-08-17T15:15:14.905Z,3.30
2022-08-17T15:18:37.700Z,4.40
2022-08-17T15:21:59.428Z,5.18
2022-08-17T15:25:22.309Z,4.05
2022-08-17T15:28:44.166Z,3.90
2022-08-17T15:32:11.782Z,7.20
2022-08-17T15:35:33.929Z,3.53
2022-08-17T15:38:55.722Z,3.80
2022-08-17T15:42:19.091Z,5.25
2022-08-17T15:45:42.094Z,5.78
2022-08-17T15:49:04.041Z,4.68
2022-08-17T15:52:29.658Z,6.07
2022-08-17T15:55:51.921Z,4.57
2022-08-17T15:59:15.137Z,5.60
2022-08-17T16:03:14.923Z,4.70
2022-08-17T16:06:19.685Z,5.60
2022-08-17T16:09:41.910Z,5.70
2022-08-17T16:13:04.567Z,4.72
2022-08-17T16:16:28.812Z,5.57
2022-08-17T16:19:51.891Z,4.50
2022-08-17T16:23:18.524Z,3.60
2022-08-17T16:26:42.192Z,4.68
2022-08-17T16:30:08.335Z,7.25
2022-08-17T16:33:30.083Z,5.60
2022-08-17T16:36:56.068Z,6.05
2022-08-17T16:40:18.125Z,6.05
2022-08-17T16:43:39.837Z,4.85
2022-08-17T16:47:01.571Z,4.22
2022-08-17T16:50:24.231Z,4.90
2022-08-17T16:53:46.116Z,4.15
2022-08-17T16:57:20.208Z,3.78
2022-08-17T17:00:44.206Z,4.40
2022-08-17T17:04:11.527Z,3.90
2022-08-17T17:07:38.112Z,4.20
2022-08-17T17:11:09.307Z,4.82
2022-08-17T17:14:42.907Z,3.72
2022-08-17T17:18:07.104Z,3.60
2022-08-17T17:22:12.070Z,5.88
2022-08-17T17:25:40.699Z,4.28
2022-08-17T17:29:46.566Z,4.43
2022-08-17T17:33:17.646Z,3.90
2022-08-17T17:37:03.103Z,5.88
2022-08-17T17:40:32.784Z,4.32
2022-08-17T17:44:19.899Z,3.03
2022-08-17T17:47:41.734Z,3.70
2022-08-17T17:51:11.943Z,4.10
2022-08-17T17:55:01.547Z,4.25
2022-08-17T17:58:43.803Z,4.18
2022-08-17T18:02:45.503Z,4.43
2022-08-17T18:06:46.409Z,6.75
2022-08-17T18:10:30.325Z,23.15
2022-08-17T18:14:17.116Z,6.88
2022-08-17T18:17:38.961Z,7.72
2022-08-17T18:21:05.433Z,9.57
2022-08-17T18:24:36.521Z,6.97
2022-08-17T18:27:59.828Z,6.10
2022-08-17T18:31:22.025Z,7.78
2022-08-17T18:34:49.099Z,12.00
2022-08-17T18:38:22.072Z,7.18
2022-08-17T18:41:47.194Z,5.40
2022-08-17T18:45:09.708Z,6.05
2022-08-17T18:48:33.334Z,6.57
2022-08-17T18:52:10.551Z,7.60
2022-08-17T18:55:32.410Z,9.98
2022-08-17T18:59:09.264Z,5.85
2022-08-17T19:02:46.597Z,6.07
2022-08-17T19:06:25.213Z,8.02
2022-08-17T19:09:55.840Z,5.75
2022-08-17T19:13:37.525Z,5.18
2022-08-17T19:17:16.310Z,8.55
2022-08-17T19:20:44.451Z,6.88
2022-08-17T19:24:19.367Z,5.72
2022-08-17T19:27:50.427Z,7.13
2022-08-17T19:31:21.955Z,5.13
2022-08-17T19:34:44.379Z,6.35
2022-08-17T19:38:21.802Z,7.00
2022-08-17T19:42:01.628Z,5.43
2022-08-17T19:45:42.243Z,5.25
2022-08-17T19:49:41.183Z,7.50
2022-08-17T19:53:41.730Z,6.95
2022-08-17T19:57:21.124Z,6.03
2022-08-17T20:00:49.966Z,8.57
2022-08-17T20:04:25.572Z,5.90
2022-08-17T20:08:11.381Z,6.07
2022-08-17T20:11:51.397Z,6.47
2022-08-17T20:15:24.421Z,6.60
2022-08-17T20:19:02.855Z,5.45
2022-08-17T20:22:36.797Z,5.25
2022-08-17T20:26:28.309Z,8.18
2022-08-17T20:30:05.486Z,5.10
2022-08-17T20:33:34.383Z,6.03
2022-08-17T20:37:05.792Z,5.13
2022-08-17T20:40:31.759Z,7.47
2022-08-17T20:44:05.530Z,5.78
2022-08-17T20:48:15.136Z,5.07
2022-08-17T20:52:13.372Z,5.78
2022-08-17T20:55:51.868Z,6.25
2022-08-17T20:59:27.457Z,5.28
2022-08-17T21:02:51.200Z,5.60
2022-08-17T21:06:17.657Z,8.93
2022-08-17T21:09:39.713Z,5.47
2022-08-17T21:13:15.523Z,5.57
2022-08-17T21:17:06.644Z,7.38
2022-08-17T21:20:44.738Z,7.38
2022-08-17T21:24:20.332Z,5.75
2022-08-17T21:27:59.872Z,6.13
2022-08-17T21:31:34.985Z,9.93
2022-08-17T21:35:26.029Z,7.68
2022-08-17T21:38:47.655Z,10.88
2022-08-17T21:42:12.541Z,7.15
2022-08-17T21:45:37.904Z,8.80
2022-08-17T21:49:13.506Z,7.15
2022-08-17T21:52:35.716Z,5.72
2022-08-17T21:55:57.618Z,5.35
2022-08-17T21:59:24.289Z,8.18
2022-08-17T22:02:55.342Z,6.82
2022-08-17T22:06:56.896Z,6.07
2022-08-17T22:10:37.510Z,6.22
2022-08-17T22:14:05.435Z,7.90
2022-08-17T22:17:29.108Z,7.00
2022-08-17T22:20:53.921Z,6.80
2022-08-17T22:24:21.232Z,6.82
2022-08-17T22:27:50.723Z,6.25
2022-08-17T22:31:18.939Z,6.50
2022-08-17T22:34:40.723Z,6.18
2022-08-17T22:38:32.149Z,6.97
2022-08-17T22:42:00.836Z,7.82
2022-08-17T22:45:24.214Z,6.07
2022-08-17T22:48:50.048Z,9.25
2022-08-17T22:52:32.921Z,6.22
2022-08-17T22:56:15.277Z,5.97
2022-08-17T22:59:49.655Z,7.80
2022-08-17T23:03:19.576Z,6.30
2022-08-17T23:06:44.157Z,7.20
2022-08-17T23:10:06.491Z,9.05
2022-08-17T23:13:33.279Z,6.65
2022-08-17T23:16:55.021Z,7.50
2022-08-17T23:20:17.541Z,6.38
2022-08-17T23:23:40.185Z,6.18
2022-08-17T23:27:04.572Z,9.50
2022-08-17T23:30:28.364Z,10.07
2022-08-17T23:33:50.270Z,9.95
2022-08-17T23:37:12.102Z,7.53
2022-08-17T23:40:33.913Z,6.35
2022-08-17T23:43:55.763Z,7.35
2022-08-17T23:47:17.823Z,7.60
2022-08-17T23:50:40.589Z,6.75
2022-08-17T23:54:31.318Z,5.97
2022-08-17T23:57:53.230Z,8.13
